Time;durP1;ratioP1;P1;durP2;ratioP2;P2;SDS_P1;SDS_P2;PMS_P1;PMS_P2;Temp;Humidity;BMP_temperature;BMP_pressure;BME280_temperature;BME280_humidity;BME280_pressure;Samples;Min_cycle;Max_cycle;Signal;HPM_P1;HPM_P2
2023/08/11 00:00:27;;;;;;;3.00;2.10;;;;;;;18.20;86.19;95048.66;5090182;28;20189;-43
2023/08/11 00:02:54;;;;;;;2.10;2.00;;;;;;;18.07;86.38;95028.56;5075687;28;20202;-44
2023/08/11 00:05:21;;;;;;;2.90;2.20;;;;;;;18.20;86.17;95036.50;5069059;28;20370;-44
2023/08/11 00:07:50;;;;;;;2.20;2.00;;;;;;;18.21;86.20;95037.31;5069150;28;20252;-43
2023/08/11 00:10:17;;;;;;;2.70;2.30;;;;;;;17.77;85.91;94965.59;5069065;28;20272;-45
2023/08/11 00:12:45;;;;;;;2.00;1.90;;;;;;;17.76;85.67;94958.81;5069086;28;20224;-44
2023/08/11 00:15:13;;;;;;;2.10;2.00;;;;;;;18.19;85.71;95034.13;5069115;28;20191;-43
2023/08/11 00:17:40;;;;;;;2.40;2.20;;;;;;;18.10;85.95;95037.75;5068792;28;20278;-44
2023/08/11 00:20:08;;;;;;;1.90;1.80;;;;;;;18.00;86.42;95036.22;5068963;28;20666;-43
2023/08/11 00:22:35;;;;;;;2.40;2.20;;;;;;;17.93;86.91;95039.69;5068973;28;20255;-44
2023/08/11 00:25:02;;;;;;;4.20;2.30;;;;;;;17.91;86.97;95041.63;5069092;28;20230;-43
2023/08/11 00:27:29;;;;;;;2.50;2.03;;;;;;;17.91;87.30;95036.44;5069007;28;20179;-43
2023/08/11 00:29:58;;;;;;;2.60;2.40;;;;;;;17.91;87.46;95034.66;5072690;28;20216;-42
2023/08/11 00:32:25;;;;;;;2.07;1.87;;;;;;;17.88;87.47;95034.22;5072134;28;20244;-43
2023/08/11 00:34:52;;;;;;;2.07;1.87;;;;;;;17.88;87.61;95031.66;5072711;28;20285;-43
2023/08/11 00:37:19;;;;;;;2.77;2.27;;;;;;;17.86;88.14;95039.56;5072648;28;20947;-43
2023/08/11 00:39:46;;;;;;;3.53;2.43;;;;;;;17.83;88.42;95031.34;5072638;28;20230;-44
2023/08/11 00:42:13;;;;;;;2.73;2.30;;;;;;;17.82;88.53;95043.47;5072358;28;20623;-42
2023/08/11 00:44:41;;;;;;;1.93;1.83;;;;;;;17.86;88.34;95041.34;5072205;28;20214;-43
2023/08/11 00:47:09;;;;;;;4.00;1.97;;;;;;;17.88;88.53;95049.75;5072256;28;20608;-43
2023/08/11 00:49:36;;;;;;;2.43;2.23;;;;;;;17.88;88.52;95050.56;5072292;28;20190;-43
2023/08/11 00:52:04;;;;;;;3.47;2.10;;;;;;;17.91;88.53;95047.59;5072297;28;20194;-42
2023/08/11 00:54:31;;;;;;;3.40;2.30;;;;;;;17.70;88.76;95011.19;5072024;28;20190;-43
2023/08/11 00:56:58;;;;;;;2.30;2.10;;;;;;;17.93;88.60;95045.66;5072486;28;20193;-43
2023/08/11 00:59:26;;;;;;;2.27;1.90;;;;;;;17.95;88.14;95046.28;5071697;28;20231;-42
2023/08/11 01:01:52;;;;;;;2.27;2.13;;;;;;;17.97;87.77;95046.13;5072444;28;20193;-42
2023/08/11 01:04:21;;;;;;;3.13;2.00;;;;;;;17.96;87.71;95041.91;5071690;28;20631;-42
2023/08/11 01:06:53;;;;;;;3.97;1.80;;;;;;;17.94;87.33;95041.28;5071896;28;20198;-42
2023/08/11 01:09:36;;;;;;;2.30;2.10;;;;;;;17.88;87.09;95035.03;5071587;28;20681;-43
2023/08/11 01:12:14;;;;;;;2.10;1.90;;;;;;;17.88;86.61;95040.22;5071830;28;20182;-43
2023/08/11 01:14:49;;;;;;;3.20;1.93;;;;;;;17.87;86.44;95037.78;5071858;28;20186;-42
2023/08/11 01:17:18;;;;;;;2.20;2.00;;;;;;;17.86;86.06;95038.75;5071850;28;20193;-41
2023/08/11 01:19:47;;;;;;;2.90;2.13;;;;;;;16.90;85.79;94895.28;5071538;28;20187;-43
2023/08/11 01:22:15;;;;;;;5.70;2.30;;;;;;;17.79;85.83;95047.22;5071727;28;20194;-42
2023/08/11 01:24:45;;;;;;;4.07;2.27;;;;;;;17.75;85.48;95045.16;5071339;28;20217;-43
2023/08/11 01:27:12;;;;;;;2.33;1.90;;;;;;;17.73;85.56;95052.25;5071890;28;20226;-43
2023/08/11 01:29:40;;;;;;;4.03;2.20;;;;;;;17.71;85.63;95049.84;5071777;28;20190;-43
2023/08/11 01:32:08;;;;;;;3.00;2.30;;;;;;;17.70;85.64;95050.00;5071296;28;20317;-44
2023/08/11 01:34:35;;;;;;;2.53;2.33;;;;;;;17.67;85.65;95056.34;5071328;28;20202;-43
2023/08/11 01:37:03;;;;;;;2.37;2.17;;;;;;;17.63;85.52;95042.13;5071480;28;20240;-44
2023/08/11 01:39:30;;;;;;;3.00;2.50;;;;;;;17.65;85.85;95049.72;5070684;28;20245;-44
2023/08/11 01:41:58;;;;;;;6.07;2.60;;;;;;;17.51;85.56;95028.78;5071463;28;20199;-42
2023/08/11 01:44:26;;;;;;;4.07;2.50;;;;;;;17.63;85.66;95044.72;5070894;28;20213;-43
2023/08/11 01:46:56;;;;;;;2.77;2.30;;;;;;;17.52;85.62;95032.97;5071315;28;20198;-42
2023/08/11 01:49:23;;;;;;;2.60;2.23;;;;;;;17.57;85.71;95042.81;5070919;28;20194;-43
2023/08/11 01:51:50;;;;;;;2.60;2.40;;;;;;;17.52;85.65;95045.91;5071327;28;20191;-44
2023/08/11 01:54:17;;;;;;;5.30;2.27;;;;;;;17.49;85.70;95040.28;5071404;28;20252;-44
2023/08/11 01:56:45;;;;;;;5.77;2.33;;;;;;;17.34;85.71;95024.69;5071330;28;20194;-43
2023/08/11 01:59:16;;;;;;;3.13;2.40;;;;;;;17.38;86.26;95025.16;5071231;28;20206;-43
2023/08/11 02:01:43;;;;;;;3.80;2.33;;;;;;;17.40;86.14;95043.88;5070986;28;20190;-43
2023/08/11 02:04:10;;;;;;;2.67;2.47;;;;;;;17.34;86.34;95050.53;5071450;28;20214;-43
2023/08/11 02:06:39;;;;;;;2.70;2.50;;;;;;;17.30;86.56;95049.28;5070507;28;20724;-43
2023/08/11 02:09:08;;;;;;;2.60;2.40;;;;;;;17.26;86.59;95050.59;5071189;28;20206;-43
2023/08/11 02:11:35;;;;;;;3.50;2.60;;;;;;;17.22;86.73;95039.78;5070485;28;20277;-42
2023/08/11 02:14:02;;;;;;;3.00;2.67;;;;;;;17.16;87.06;95045.63;5070592;28;20651;-43
2023/08/11 02:16:31;;;;;;;3.63;2.47;;;;;;;17.14;87.02;95050.19;5070371;28;20572;-42
2023/08/11 02:18:57;;;;;;;2.40;2.13;;;;;;;17.07;87.31;95043.28;5070403;28;20252;-43
2023/08/11 02:21:24;;;;;;;3.33;2.47;;;;;;;17.10;87.48;95046.34;5070125;28;20662;-42
2023/08/11 02:23:51;;;;;;;2.73;2.53;;;;;;;17.06;87.67;95047.63;5070214;28;20555;-44
2023/08/11 02:26:18;;;;;;;2.60;2.40;;;;;;;17.01;88.13;95047.31;5070121;28;20213;-42
2023/08/11 02:28:45;;;;;;;2.97;2.43;;;;;;;16.96;88.42;95047.00;5070573;28;20190;-40
2023/08/11 02:31:11;;;;;;;2.83;2.30;;;;;;;16.95;88.56;95055.75;5070165;28;20226;-41
2023/08/11 02:33:40;;;;;;;4.70;2.50;;;;;;;16.94;88.44;95057.53;5070137;28;20280;-40
2023/08/11 02:36:07;;;;;;;2.30;2.20;;;;;;;16.92;88.55;95059.47;5070335;28;20248;-42
2023/08/11 02:38:34;;;;;;;3.10;2.40;;;;;;;16.90;88.79;95056.25;5070415;28;20187;-41
2023/08/11 02:41:01;;;;;;;3.80;2.50;;;;;;;16.90;88.60;95051.09;5070334;28;20183;-42
2023/08/11 02:43:28;;;;;;;5.70;2.70;;;;;;;16.89;88.75;95053.84;5069784;28;20186;-42
2023/08/11 02:45:55;;;;;;;2.83;2.63;;;;;;;16.88;88.99;95059.97;5070030;28;20210;-45
2023/08/11 02:48:21;;;;;;;2.60;2.40;;;;;;;16.84;89.17;95046.59;5069826;28;20241;-43
2023/08/11 02:50:50;;;;;;;4.03;2.57;;;;;;;16.85;89.52;95050.78;5069408;28;20183;-43
2023/08/11 02:53:16;;;;;;;5.57;2.23;;;;;;;16.85;89.18;95053.38;5069664;28;20609;-41
2023/08/11 02:55:43;;;;;;;3.27;2.50;;;;;;;16.88;88.95;95058.22;5069883;28;20198;-44
2023/08/11 02:58:10;;;;;;;2.60;2.40;;;;;;;16.93;88.96;95057.72;5069832;28;20210;-42
2023/08/11 03:00:37;;;;;;;2.70;2.50;;;;;;;16.96;89.01;95059.94;5069733;28;20689;-42
2023/08/11 03:03:04;;;;;;;2.57;2.20;;;;;;;16.97;88.73;95067.53;5069534;28;20222;-42
2023/08/11 03:05:31;;;;;;;9.03;3.00;;;;;;;16.95;88.52;95056.56;5069490;28;20225;-42
2023/08/11 03:07:59;;;;;;;2.60;2.40;;;;;;;17.01;88.38;95057.66;5069771;28;20282;-42
2023/08/11 03:10:26;;;;;;;3.30;2.23;;;;;;;17.01;88.13;95065.41;5069995;28;20186;-40
2023/08/11 03:12:53;;;;;;;2.80;2.60;;;;;;;16.97;88.28;95064.16;5069506;28;20539;-41
2023/08/11 03:15:20;;;;;;;3.30;2.30;;;;;;;16.96;88.04;95068.50;5069524;28;20190;-44
2023/08/11 03:17:47;;;;;;;3.00;2.43;;;;;;;16.94;88.29;95067.06;5069830;28;20252;-41
2023/08/11 03:20:15;;;;;;;3.87;3.30;;;;;;;16.92;88.64;95074.16;5069576;28;20233;-43
2023/08/11 03:22:42;;;;;;;4.27;3.03;;;;;;;16.92;88.67;95062.03;5069657;28;20637;-42
2023/08/11 03:25:11;;;;;;;3.00;2.70;;;;;;;16.94;88.74;95073.03;5069333;28;20206;-43
2023/08/11 03:27:40;;;;;;;2.90;2.70;;;;;;;16.97;88.61;95070.13;5069457;28;20186;-43
2023/08/11 03:30:08;;;;;;;2.67;2.47;;;;;;;16.98;88.42;95073.50;5069151;28;20190;-44
2023/08/11 03:32:35;;;;;;;2.97;2.70;;;;;;;16.79;88.66;95044.50;5069392;28;20190;-42
2023/08/11 03:35:02;;;;;;;3.30;2.73;;;;;;;16.95;88.74;95066.09;5069068;28;20198;-43
2023/08/11 03:37:29;;;;;;;3.30;3.00;;;;;;;16.93;89.00;95074.00;5069312;28;20638;-42
2023/08/11 03:39:56;;;;;;;3.17;2.57;;;;;;;16.97;88.84;95067.53;5069391;28;20288;-43
2023/08/11 03:42:24;;;;;;;2.83;2.63;;;;;;;17.01;88.53;95070.56;5069432;28;20222;-42
2023/08/11 03:44:52;;;;;;;2.93;2.60;;;;;;;17.07;88.36;95072.50;5069176;28;20291;-45
2023/08/11 03:47:19;;;;;;;7.07;3.27;;;;;;;17.10;88.35;95079.09;5069279;28;20190;-43
2023/08/11 03:49:46;;;;;;;3.33;2.90;;;;;;;17.14;88.20;95075.19;5069103;28;20681;-44
2023/08/11 03:52:13;;;;;;;2.80;2.57;;;;;;;17.19;88.22;95078.09;5069375;28;20236;-43
2023/08/11 03:54:40;;;;;;;2.80;2.47;;;;;;;17.21;88.17;95076.16;5069591;28;20198;-44
2023/08/11 03:57:07;;;;;;;3.83;2.53;;;;;;;17.29;87.91;95089.03;5069231;28;20198;-44
2023/08/11 03:59:36;;;;;;;3.97;2.77;;;;;;;17.39;88.04;95074.09;5069050;28;20273;-44
2023/08/11 04:02:03;;;;;;;2.90;2.50;;;;;;;17.48;87.78;95073.09;5070117;28;20255;-43
2023/08/11 04:04:29;;;;;;;3.33;2.57;;;;;;;17.59;87.25;95074.50;5073044;28;20209;-44
2023/08/11 04:06:56;;;;;;;2.73;2.33;;;;;;;17.62;87.28;95073.34;5072727;28;20702;-44
2023/08/11 04:09:23;;;;;;;2.60;2.40;;;;;;;17.63;87.55;95078.34;5073097;28;20671;-43
2023/08/11 04:11:48;;;;;;;2.87;2.60;;;;;;;17.62;87.59;95068.19;5072781;28;20193;-44
2023/08/11 04:14:15;;;;;;;2.50;2.30;;;;;;;17.74;87.46;95070.19;5073316;28;20190;-43
2023/08/11 04:16:44;;;;;;;4.87;2.60;;;;;;;17.29;87.56;94999.34;5073087;28;20593;-43
2023/08/11 04:19:11;;;;;;;2.60;2.40;;;;;;;17.87;87.51;95076.59;5073316;28;20285;-44
2023/08/11 04:21:39;;;;;;;3.10;2.33;;;;;;;17.97;87.46;95075.38;5072621;28;20652;-42
2023/08/11 04:24:06;;;;;;;5.67;2.70;;;;;;;18.07;87.40;95079.50;5073244;28;20547;-46
2023/08/11 04:26:34;;;;;;;3.33;2.80;;;;;;;18.17;86.89;95078.28;5072793;28;20214;-43
2023/08/11 04:29:03;;;;;;;2.80;2.60;;;;;;;18.25;86.50;95080.00;5072806;28;20273;-45
2023/08/11 04:31:31;;;;;;;2.90;2.60;;;;;;;18.35;86.32;95078.00;5072425;28;20311;-45
2023/08/11 04:33:59;;;;;;;2.50;2.30;;;;;;;18.49;85.69;95079.00;5072332;28;20234;-45
2023/08/11 04:36:27;;;;;;;3.43;3.13;;;;;;;18.51;85.25;95077.00;5072826;28;20233;-44
2023/08/11 04:38:55;;;;;;;4.77;2.50;;;;;;;18.54;85.58;95082.66;5072317;28;20186;-44
2023/08/11 04:41:22;;;;;;;4.43;2.47;;;;;;;18.55;85.63;95089.44;5072566;28;20179;-43
2023/08/11 04:43:49;;;;;;;2.97;2.40;;;;;;;18.58;85.56;95090.88;5072575;28;20187;-44
2023/08/11 04:46:16;;;;;;;2.33;2.10;;;;;;;18.63;85.34;95085.16;5072751;28;20301;-43
2023/08/11 04:48:42;;;;;;;3.80;2.50;;;;;;;18.76;84.78;95093.94;5071915;28;20612;-44
2023/08/11 04:51:11;;;;;;;5.23;2.30;;;;;;;18.90;85.12;95089.75;5072630;28;20187;-45
2023/08/11 04:53:38;;;;;;;4.47;2.63;;;;;;;19.11;84.55;95090.81;5072044;28;20220;-44
2023/08/11 04:56:04;;;;;;;3.93;2.67;;;;;;;19.41;82.80;95091.56;5072499;28;20635;-46
2023/08/11 04:58:33;;;;;;;6.27;2.20;;;;;;;19.71;80.95;95094.94;5071932;28;20187;-44
2023/08/11 05:01:03;;;;;;;2.35;2.15;;;;;;;20.00;80.47;95099.22;5072188;28;20186;-44
2023/08/11 05:03:29;;;;;;;2.57;2.37;;;;;;;20.36;78.74;95095.72;5072339;28;20222;-44
2023/08/11 05:05:56;;;;;;;6.00;2.58;;;;;;;20.71;77.52;95099.97;5072460;28;20217;-45
2023/08/11 05:08:24;;;;;;;4.47;2.65;;;;;;;21.09;75.47;95097.00;5072305;28;20253;-45
2023/08/11 05:10:51;;;;;;;2.10;2.00;;;;;;;21.28;74.12;95098.88;5071905;28;20581;-45
2023/08/11 05:13:18;;;;;;;4.63;2.95;;;;;;;21.56;72.23;95108.44;5071456;28;20588;-44
2023/08/11 05:15:45;;;;;;;3.35;3.08;;;;;;;21.70;70.79;95106.69;5071732;28;20190;-44
2023/08/11 05:18:11;;;;;;;3.53;2.55;;;;;;;21.77;70.81;95108.31;5072030;28;20610;-45
2023/08/11 05:20:38;;;;;;;3.25;2.95;;;;;;;21.86;70.46;95108.94;5071670;28;20236;-44
2023/08/11 05:23:05;;;;;;;2.60;2.40;;;;;;;21.84;70.31;95118.72;5071789;28;20183;-44
2023/08/11 05:25:33;;;;;;;2.47;2.28;;;;;;;21.81;70.08;95118.34;5071432;28;20226;-41
2023/08/11 05:28:00;;;;;;;4.50;2.28;;;;;;;21.83;70.77;95121.53;5071867;28;20646;-44
2023/08/11 05:30:27;;;;;;;2.75;2.25;;;;;;;21.82;70.80;95125.94;5071375;28;20240;-43
2023/08/11 05:32:56;;;;;;;4.63;3.00;;;;;;;21.91;70.05;95118.75;5071897;28;20218;-45
2023/08/11 05:35:22;;;;;;;5.05;2.90;;;;;;;21.98;70.13;95124.78;5071592;28;20194;-46
2023/08/11 05:37:49;;;;;;;4.10;2.55;;;;;;;22.14;69.62;95132.22;5071934;28;20433;-45
2023/08/11 05:40:16;;;;;;;2.83;2.58;;;;;;;22.22;69.43;95132.03;5071541;28;20605;-45
2023/08/11 05:42:44;;;;;;;3.10;2.65;;;;;;;22.21;69.33;95133.06;5071457;28;20194;-46
2023/08/11 05:45:12;;;;;;;2.63;2.42;;;;;;;22.25;69.10;95136.88;5071260;28;20701;-45
2023/08/11 05:47:38;;;;;;;2.60;2.40;;;;;;;22.48;68.34;95135.66;5071559;28;20190;-45
2023/08/11 05:50:07;;;;;;;2.90;2.70;;;;;;;22.61;67.85;95137.47;5071550;28;20194;-43
2023/08/11 05:52:33;;;;;;;5.68;3.55;;;;;;;22.85;67.28;95133.47;5071349;28;20576;-45
2023/08/11 05:55:00;;;;;;;2.90;2.42;;;;;;;22.98;66.68;95133.47;5071588;28;20225;-44
2023/08/11 05:57:27;;;;;;;2.90;2.70;;;;;;;23.21;66.81;95149.47;5071257;28;20186;-43
2023/08/11 05:59:55;;;;;;;5.97;2.55;;;;;;;23.42;65.89;95137.94;5071260;28;20194;-46
2023/08/11 06:02:22;;;;;;;3.22;2.65;;;;;;;23.50;64.84;95140.34;5071119;28;20198;-43
2023/08/11 06:04:50;;;;;;;4.68;2.58;;;;;;;23.63;64.36;95144.72;5071166;28;20198;-46
2023/08/11 06:07:16;;;;;;;6.32;2.70;;;;;;;23.68;64.05;95138.88;5070997;28;20302;-45
2023/08/11 06:09:44;;;;;;;3.10;2.65;;;;;;;23.81;64.13;95138.81;5071397;28;20545;-46
2023/08/11 06:12:11;;;;;;;2.85;2.42;;;;;;;23.93;63.14;95137.16;5070695;28;20189;-46
2023/08/11 06:14:38;;;;;;;6.75;3.25;;;;;;;24.07;62.52;95140.50;5071374;28;20208;-45
2023/08/11 06:17:06;;;;;;;3.00;2.78;;;;;;;24.22;61.01;95132.34;5070700;28;20659;-44
2023/08/11 06:19:33;;;;;;;3.15;2.63;;;;;;;24.40;61.18;95145.53;5070965;28;20294;-47
2023/08/11 06:22:00;;;;;;;3.17;2.60;;;;;;;24.57;60.65;95144.97;5070916;28;20205;-42
2023/08/11 06:24:27;;;;;;;2.85;2.42;;;;;;;24.74;59.72;95143.44;5070886;28;20182;-42
2023/08/11 06:26:53;;;;;;;4.88;2.50;;;;;;;24.62;59.54;95140.75;5069569;28;20214;-44
2023/08/11 06:29:21;;;;;;;3.00;2.80;;;;;;;24.78;59.39;95140.19;5070835;28;20187;-41
2023/08/11 06:31:47;;;;;;;3.88;2.83;;;;;;;24.94;58.12;95145.88;5070532;28;20229;-44
2023/08/11 06:34:17;;;;;;;3.83;2.80;;;;;;;24.96;57.72;95151.72;5070399;28;20187;-46
2023/08/11 06:36:45;;;;;;;6.60;2.70;;;;;;;24.71;57.90;95152.53;5070389;28;20198;-42
2023/08/11 06:39:12;;;;;;;5.72;2.88;;;;;;;24.39;59.04;95156.97;5070190;28;20194;-42
2023/08/11 06:41:39;;;;;;;3.00;2.80;;;;;;;24.25;60.56;95150.22;5070204;28;20280;-43
2023/08/11 06:44:06;;;;;;;2.70;2.50;;;;;;;24.53;60.43;95148.03;5070306;28;20567;-45
2023/08/11 06:46:33;;;;;;;3.00;2.75;;;;;;;24.82;59.28;95152.84;5070071;28;20229;-44
2023/08/11 06:49:01;;;;;;;3.35;2.75;;;;;;;24.86;59.23;95156.63;5069934;28;20206;-45
2023/08/11 06:51:29;;;;;;;5.28;3.08;;;;;;;24.93;59.13;95154.75;5070252;28;20685;-45
2023/08/11 06:53:56;;;;;;;3.47;3.17;;;;;;;25.21;58.35;95162.16;5070010;28;20502;-45
2023/08/11 06:56:23;;;;;;;2.38;2.17;;;;;;;25.47;57.46;95146.16;5070075;28;20296;-45
2023/08/11 06:58:51;;;;;;;5.00;2.80;;;;;;;25.87;55.78;95150.16;5070398;28;20199;-44
2023/08/11 07:01:18;;;;;;;3.53;3.22;;;;;;;26.02;55.60;95158.41;5070512;28;20190;-43
2023/08/11 07:03:44;;;;;;;3.05;2.75;;;;;;;26.19;54.74;95163.81;5070251;28;20661;-46
2023/08/11 07:06:11;;;;;;;6.20;3.10;;;;;;;26.03;55.22;95171.28;5070075;28;20217;-46
2023/08/11 07:08:40;;;;;;;3.33;3.03;;;;;;;25.54;55.37;95098.94;5070228;28;20212;-45
2023/08/11 07:11:07;;;;;;;2.97;2.60;;;;;;;26.29;54.49;95171.94;5069916;28;20202;-44
2023/08/11 07:13:34;;;;;;;6.30;2.75;;;;;;;26.45;54.22;95173.97;5069795;28;20662;-44
2023/08/11 07:16:01;;;;;;;4.53;3.13;;;;;;;26.52;53.57;95174.66;5069740;28;20574;-44
2023/08/11 07:18:28;;;;;;;13.63;3.28;;;;;;;26.68;53.17;95175.03;5069889;28;20198;-45
2023/08/11 07:20:55;;;;;;;4.90;2.90;;;;;;;26.69;51.95;95171.41;5069628;28;20228;-43
2023/08/11 07:23:22;;;;;;;3.10;2.70;;;;;;;26.76;52.04;95172.06;5070035;28;20190;-44
2023/08/11 07:25:50;;;;;;;3.28;2.95;;;;;;;26.62;52.10;95108.50;5069132;28;20661;-44
2023/08/11 07:28:17;;;;;;;11.13;3.13;;;;;;;27.32;49.61;95175.19;5069954;28;20186;-43
2023/08/11 07:30:43;;;;;;;3.58;3.28;;;;;;;27.01;49.19;95179.75;5069063;28;20234;-43
2023/08/11 07:33:10;;;;;;;6.63;2.80;;;;;;;26.48;50.57;95177.97;5069751;28;20263;-42
2023/08/11 07:35:37;;;;;;;3.10;2.90;;;;;;;26.39;51.28;95179.28;5069549;28;20186;-43
2023/08/11 07:38:04;;;;;;;5.63;3.05;;;;;;;26.33;51.49;95167.84;5069559;28;20198;-43
2023/08/11 07:40:32;;;;;;;3.15;2.95;;;;;;;26.32;52.04;95176.75;5069446;28;20650;-44
2023/08/11 07:43:00;;;;;;;3.70;3.17;;;;;;;26.49;51.13;95159.38;5069003;28;20186;-44
2023/08/11 07:45:27;;;;;;;6.45;3.08;;;;;;;26.79;50.86;95176.06;5069834;28;20617;-44
2023/08/11 07:47:53;;;;;;;2.90;2.70;;;;;;;27.09;49.96;95186.47;5069187;28;20218;-45
2023/08/11 07:50:20;;;;;;;4.85;3.00;;;;;;;27.32;49.92;95178.59;5069619;28;20190;-45
2023/08/11 07:52:47;;;;;;;4.28;3.40;;;;;;;27.34;49.07;95186.28;5069232;28;20558;-45
2023/08/11 07:55:14;;;;;;;6.25;3.08;;;;;;;27.15;49.62;95183.75;5069369;28;20193;-45
2023/08/11 07:57:41;;;;;;;4.20;2.80;;;;;;;26.95;50.38;95181.44;5069011;28;20194;-43
2023/08/11 08:00:16;;;;;;;3.63;2.85;;;;;;;27.20;49.04;95173.38;5069502;28;20264;-45
2023/08/11 08:02:43;;;;;;;6.55;2.97;;;;;;;27.50;47.50;95175.84;5069212;28;20271;-45
2023/08/11 08:05:10;;;;;;;3.03;2.60;;;;;;;27.79;46.75;95175.13;5069352;28;20194;-45
2023/08/11 08:07:37;;;;;;;6.80;3.78;;;;;;;27.89;46.96;95170.88;5068973;28;20267;-44
2023/08/11 08:10:08;;;;;;;7.05;3.10;;;;;;;27.81;46.37;95184.38;5069447;28;20198;-44
2023/08/11 08:12:36;;;;;;;2.80;2.60;;;;;;;27.77;45.05;95171.94;5069123;28;20779;-44
2023/08/11 08:15:04;;;;;;;3.03;2.75;;;;;;;27.54;43.97;95172.75;5069094;28;20218;-45
2023/08/11 08:17:33;;;;;;;2.85;2.42;;;;;;;27.26;43.77;95172.44;5069047;28;20219;-42
2023/08/11 08:20:00;;;;;;;3.50;2.40;;;;;;;27.35;44.37;95174.72;5069458;28;20207;-44
2023/08/11 08:22:27;;;;;;;4.40;2.55;;;;;;;27.50;44.71;95173.22;5069061;28;20183;-44
2023/08/11 08:24:54;;;;;;;2.85;2.63;;;;;;;27.42;44.22;95141.25;5068964;28;20202;-43
2023/08/11 08:27:24;;;;;;;3.40;2.47;;;;;;;27.79;44.39;95170.66;5069252;28;20226;-43
2023/08/11 08:29:52;;;;;;;4.93;2.97;;;;;;;27.81;45.14;95173.03;5068466;28;20666;-44
2023/08/11 08:32:19;;;;;;;4.07;2.83;;;;;;;27.56;45.40;95179.38;5068988;28;20214;-44
2023/08/11 08:34:48;;;;;;;4.15;2.67;;;;;;;27.34;45.82;95179.19;5068833;28;20190;-43
2023/08/11 08:37:15;;;;;;;3.88;2.65;;;;;;;27.18;46.12;95164.91;5068782;28;20563;-43
2023/08/11 08:39:43;;;;;;;3.10;2.83;;;;;;;27.05;46.58;95172.22;5068599;28;20183;-43
2023/08/11 08:42:12;;;;;;;2.60;2.40;;;;;;;26.96;46.69;95172.53;5068737;28;20190;-43
2023/08/11 08:44:39;;;;;;;2.65;2.45;;;;;;;27.13;46.63;95185.03;5068572;28;20197;-43
2023/08/11 08:47:08;;;;;;;3.58;2.60;;;;;;;27.30;45.21;95179.88;5068741;28;20690;-44
2023/08/11 08:49:36;;;;;;;3.67;2.40;;;;;;;27.48;44.61;95166.59;5070413;28;20201;-45
2023/08/11 08:52:05;;;;;;;4.93;2.50;;;;;;;27.53;45.22;95166.69;5072308;28;20194;-45
2023/08/11 08:54:32;;;;;;;2.92;2.72;;;;;;;27.51;44.90;95169.56;5072084;28;20195;-43
2023/08/11 08:57:01;;;;;;;8.85;3.00;;;;;;;27.23;46.20;95169.47;5072369;28;20194;-44
2023/08/11 08:59:28;;;;;;;2.78;2.58;;;;;;;27.18;46.27;95172.00;5072451;28;20178;-44
2023/08/11 09:01:56;;;;;;;2.97;2.53;;;;;;;27.12;46.69;95170.31;5072253;28;20676;-44
2023/08/11 09:04:23;;;;;;;2.30;2.17;;;;;;;27.17;46.04;95168.59;5071822;28;20201;-43
2023/08/11 09:06:52;;;;;;;3.40;2.78;;;;;;;27.40;45.35;95165.13;5072249;28;20226;-46
2023/08/11 09:09:20;;;;;;;6.35;2.83;;;;;;;27.62;45.79;95167.13;5072359;28;20615;-44
2023/08/11 09:11:48;;;;;;;4.45;2.88;;;;;;;27.81;44.99;95170.41;5071831;28;20189;-45
2023/08/11 09:14:16;;;;;;;3.08;2.72;;;;;;;27.91;45.51;95160.13;5071910;28;20190;-44
2023/08/11 09:16:43;;;;;;;5.50;2.80;;;;;;;28.11;45.60;95168.38;5071670;28;20189;-44
2023/08/11 09:19:13;;;;;;;3.08;2.78;;;;;;;28.12;45.84;95167.34;5071852;28;20190;-45
2023/08/11 09:21:42;;;;;;;3.10;2.80;;;;;;;28.12;44.87;95161.28;5071845;28;20186;-43
2023/08/11 09:24:11;;;;;;;6.78;2.45;;;;;;;28.23;44.05;95155.94;5071931;28;20624;-43
2023/08/11 09:26:42;;;;;;;3.33;2.65;;;;;;;28.40;43.30;95156.00;5071917;28;20308;-43
2023/08/11 09:29:10;;;;;;;2.90;2.50;;;;;;;28.12;43.63;95122.63;5071934;28;20269;-44
2023/08/11 09:31:38;;;;;;;3.63;2.58;;;;;;;28.29;43.77;95156.84;5071601;28;20238;-44
2023/08/11 09:34:12;;;;;;;4.20;2.42;;;;;;;28.23;43.58;95152.53;5071391;28;20678;-44
2023/08/11 09:36:40;;;;;;;2.70;2.50;;;;;;;28.08;43.35;95147.81;5071701;28;20217;-43
2023/08/11 09:39:08;;;;;;;2.78;2.58;;;;;;;27.87;43.86;95154.53;5071511;28;20186;-44
2023/08/11 09:41:41;;;;;;;3.17;2.40;;;;;;;27.55;44.63;95148.88;5071574;28;20251;-44
2023/08/11 09:44:08;;;;;;;3.85;2.80;;;;;;;26.66;45.32;95057.19;5071850;28;20265;-45
2023/08/11 09:46:37;;;;;;;5.03;2.80;;;;;;;27.10;45.20;95160.00;5071140;28;20198;-44
2023/08/11 09:49:05;;;;;;;3.35;2.63;;;;;;;26.93;45.57;95161.69;5071387;28;20197;-44
2023/08/11 09:51:34;;;;;;;3.10;2.50;;;;;;;26.85;45.41;95154.16;5071087;28;20661;-44
2023/08/11 09:54:04;;;;;;;3.58;2.40;;;;;;;26.79;44.98;95153.25;5071121;28;20302;-42
2023/08/11 09:56:34;;;;;;;3.55;2.65;;;;;;;26.82;45.56;95157.25;5070976;28;20186;-44
2023/08/11 09:59:05;;;;;;;4.88;2.92;;;;;;;26.91;45.37;95155.88;5071049;28;20297;-45
2023/08/11 10:01:34;;;;;;;3.00;2.80;;;;;;;27.13;45.23;95149.06;5071045;28;20195;-45
2023/08/11 10:04:07;;;;;;;4.75;3.13;;;;;;;27.31;45.08;95153.38;5071345;28;20194;-43
2023/08/11 10:06:37;;;;;;;3.15;2.85;;;;;;;27.50;44.53;95152.22;5070763;28;20179;-43
2023/08/11 10:09:05;;;;;;;4.75;2.65;;;;;;;27.69;44.25;95141.53;5071468;28;20201;-43
2023/08/11 10:11:35;;;;;;;3.05;2.75;;;;;;;27.78;44.26;95140.16;5070961;28;20194;-44
2023/08/11 10:14:05;;;;;;;2.92;2.67;;;;;;;27.87;44.45;95136.13;5070879;28;20682;-44
2023/08/11 10:16:32;;;;;;;4.35;2.90;;;;;;;27.89;44.33;95134.06;5070820;28;20205;-45
2023/08/11 10:19:00;;;;;;;5.65;2.60;;;;;;;27.74;44.82;95139.03;5070859;28;20191;-44
2023/08/11 10:21:28;;;;;;;3.20;2.90;;;;;;;27.66;45.66;95134.91;5070755;28;20190;-43
2023/08/11 10:23:55;;;;;;;3.38;2.80;;;;;;;27.47;44.60;95128.22;5070896;28;20199;-43
2023/08/11 10:26:23;;;;;;;3.80;2.67;;;;;;;27.18;45.14;95116.84;5070351;28;20214;-43
2023/08/11 10:28:52;;;;;;;5.10;2.67;;;;;;;27.05;45.69;95130.19;5070927;28;20269;-44
2023/08/11 10:31:24;;;;;;;4.88;2.70;;;;;;;26.61;45.80;95096.44;5070628;28;20226;-43
2023/08/11 10:33:52;;;;;;;4.22;2.60;;;;;;;26.75;46.14;95126.66;5070474;28;20198;-44
2023/08/11 10:36:23;;;;;;;7.85;2.60;;;;;;;26.56;46.15;95129.63;5070553;28;20187;-44
2023/08/11 10:39:00;;;;;;;2.80;2.60;;;;;;;26.59;46.65;95121.28;5070681;28;20186;-45
2023/08/11 10:41:28;;;;;;;4.15;2.70;;;;;;;26.52;46.02;95129.28;5070537;28;20225;-43
2023/08/11 10:43:56;;;;;;;10.80;2.97;;;;;;;26.49;46.82;95117.41;5070712;28;20190;-48
2023/08/11 10:46:26;;;;;;;3.28;2.50;;;;;;;26.59;46.70;95122.06;5070652;28;20221;-44
2023/08/11 10:48:55;;;;;;;3.30;2.40;;;;;;;26.62;47.74;95118.22;5070101;28;20313;-44
2023/08/11 10:51:32;;;;;;;3.72;3.33;;;;;;;26.62;48.32;95115.59;5070005;28;20190;-43
2023/08/11 10:54:09;;;;;;;6.90;2.88;;;;;;;26.68;48.87;95110.22;5070180;28;20190;-44
2023/08/11 10:56:39;;;;;;;3.17;2.80;;;;;;;26.80;48.42;95114.69;5070315;28;20620;-44
2023/08/11 10:59:08;;;;;;;5.47;2.78;;;;;;;26.79;48.31;95119.13;5070170;28;20201;-44
2023/08/11 11:01:38;;;;;;;2.85;2.60;;;;;;;26.70;48.39;95117.88;5069711;28;20190;-46
2023/08/11 11:04:07;;;;;;;4.88;2.50;;;;;;;26.59;48.23;95111.59;5069822;28;20197;-44
2023/08/11 11:06:34;;;;;;;4.05;2.50;;;;;;;26.39;49.33;95118.97;5070160;28;20261;-44
2023/08/11 11:09:01;;;;;;;4.13;2.65;;;;;;;26.42;49.32;95114.03;5069952;28;20689;-44
2023/08/11 11:11:28;;;;;;;6.55;3.00;;;;;;;26.53;48.52;95117.75;5069606;28;20189;-43
2023/08/11 11:13:55;;;;;;;4.93;2.83;;;;;;;26.57;48.24;95124.16;5069568;28;20627;-44
2023/08/11 11:16:22;;;;;;;4.97;2.78;;;;;;;26.42;48.06;95118.50;5069867;28;20271;-44
2023/08/11 11:18:51;;;;;;;5.80;2.67;;;;;;;26.26;49.01;95117.34;5069091;28;20716;-44
2023/08/11 11:21:19;;;;;;;5.30;2.65;;;;;;;26.20;49.06;95121.63;5069506;28;20280;-43
2023/08/11 11:23:46;;;;;;;3.35;2.65;;;;;;;26.17;49.33;95121.31;5070314;28;20186;-45
2023/08/11 11:26:16;;;;;;;6.95;3.08;;;;;;;26.04;49.67;95114.44;5069505;28;20186;-44
2023/08/11 11:28:43;;;;;;;2.90;2.60;;;;;;;26.02;49.78;95117.25;5069187;28;20275;-43
2023/08/11 11:31:10;;;;;;;4.75;2.85;;;;;;;26.11;49.90;95117.75;5069278;28;20287;-42
2023/08/11 11:33:37;;;;;;;2.72;2.47;;;;;;;26.05;49.26;95095.06;5069030;28;20194;-43
2023/08/11 11:36:06;;;;;;;2.38;2.22;;;;;;;26.29;49.69;95111.63;5069321;28;20569;-42